createdAt,value
2019-04-05T00:02:20.282Z,11.37
2019-04-05T00:04:49.618Z,11.87
2019-04-05T00:07:18.919Z,11.07
2019-04-05T00:09:48.214Z,11.67
2019-04-05T00:12:18.653Z,13.43
2019-04-05T00:14:49.092Z,12.87
2019-04-05T00:17:18.422Z,12.83
2019-04-05T00:19:47.720Z,13.43
2019-04-05T00:22:17.061Z,13.27
2019-04-05T00:24:46.412Z,14.27
2019-04-05T00:27:15.706Z,14.10
2019-04-05T00:29:45.007Z,14.20
2019-04-05T00:32:14.369Z,12.97
2019-04-05T00:34:43.670Z,13.13
2019-04-05T00:37:13.005Z,14.27
2019-04-05T00:39:42.357Z,14.77
2019-04-05T00:42:11.709Z,14.40
2019-04-05T00:44:40.997Z,13.77
2019-04-05T00:47:10.377Z,13.37
2019-04-05T00:49:39.685Z,13.20
2019-04-05T00:52:09.037Z,13.87
2019-04-05T00:54:40.426Z,14.13
2019-04-05T00:57:09.714Z,14.33
2019-04-05T00:59:39.133Z,14.50
2019-04-05T01:02:09.074Z,15.57
2019-04-05T01:04:38.465Z,13.90
2019-04-05T01:07:07.768Z,14.17
2019-04-05T01:09:37.123Z,13.90
2019-04-05T01:12:07.041Z,13.90
2019-04-05T01:14:37.241Z,15.07
2019-04-05T01:17:06.581Z,13.93
2019-04-05T01:19:36.771Z,14.03
2019-04-05T01:22:08.241Z,14.53
2019-04-05T01:24:37.938Z,15.67
2019-04-05T01:27:08.692Z,14.87
2019-04-05T01:29:38.038Z,14.90
2019-04-05T01:32:07.387Z,15.17
2019-04-05T01:34:37.305Z,14.47
2019-04-05T01:37:06.606Z,13.57
2019-04-05T01:39:35.939Z,14.70
2019-04-05T01:42:05.670Z,14.63
2019-04-05T01:44:35.887Z,14.57
2019-04-05T01:47:05.181Z,14.53
2019-04-05T01:49:34.514Z,14.57
2019-04-05T01:52:03.845Z,14.27
2019-04-05T01:54:33.194Z,14.10
2019-04-05T01:57:02.498Z,15.17
2019-04-05T01:59:31.841Z,14.83
2019-04-05T02:02:01.137Z,15.03
2019-04-05T02:04:30.505Z,15.30
2019-04-05T02:06:59.877Z,14.50
2019-04-05T02:09:29.180Z,15.17
2019-04-05T02:11:58.523Z,14.77
2019-04-05T02:14:27.856Z,15.93
2019-04-05T02:16:57.189Z,15.93
2019-04-05T02:19:26.601Z,14.73
2019-04-05T02:21:55.949Z,15.43
2019-04-05T02:24:25.695Z,15.13
2019-04-05T02:26:55.001Z,15.20
2019-04-05T02:29:24.345Z,15.37
2019-04-05T02:31:53.675Z,16.50
2019-04-05T02:34:23.119Z,15.67
2019-04-05T02:36:53.509Z,14.97
2019-04-05T02:39:22.875Z,15.57
2019-04-05T02:41:54.627Z,15.77
2019-04-05T02:44:25.587Z,15.37
2019-04-05T02:46:56.441Z,16.13
2019-04-05T02:49:28.547Z,15.87
2019-04-05T02:52:00.133Z,15.47
2019-04-05T02:54:30.463Z,15.20
2019-04-05T02:57:01.850Z,15.50
2019-04-05T02:59:34.522Z,15.43
2019-04-05T03:02:06.438Z,16.03
2019-04-05T03:04:36.714Z,16.23
2019-04-05T03:07:06.828Z,15.97
2019-04-05T03:09:36.790Z,16.10
2019-04-05T03:12:07.373Z,16.67
2019-04-05T03:14:38.100Z,20.60
2019-04-05T03:17:08.890Z,17.40
2019-04-05T03:19:41.402Z,22.30
2019-04-05T03:22:13.678Z,18.93
2019-04-05T03:24:46.633Z,19.13
2019-04-05T03:27:24.194Z,16.03
2019-04-05T03:29:54.975Z,17.13
2019-04-05T03:32:25.309Z,17.30
2019-04-05T03:34:56.107Z,15.93
2019-04-05T03:37:26.024Z,17.53
2019-04-05T03:39:57.201Z,17.93
2019-04-05T03:42:27.682Z,17.60
2019-04-05T03:44:57.012Z,17.23
2019-04-05T03:47:26.302Z,16.67
2019-04-05T03:49:56.482Z,17.23
2019-04-05T03:52:26.338Z,17.20
2019-04-05T03:54:55.627Z,17.17
2019-04-05T03:57:25.456Z,16.57
2019-04-05T03:59:55.263Z,18.30
2019-04-05T04:02:24.634Z,16.70
2019-04-05T04:04:53.924Z,17.07
2019-04-05T04:07:23.735Z,16.57
2019-04-05T04:09:53.176Z,16.47
2019-04-05T04:12:23.506Z,17.37
2019-04-05T04:14:52.859Z,17.73
2019-04-05T04:17:22.591Z,17.63
2019-04-05T04:19:52.293Z,17.60
2019-04-05T04:22:34.157Z,16.97
2019-04-05T04:25:04.293Z,18.00
2019-04-05T04:27:34.178Z,17.17
2019-04-05T04:30:04.449Z,30.93
2019-04-05T04:32:34.198Z,26.30
2019-04-05T04:35:04.168Z,18.53
2019-04-05T04:37:34.262Z,21.17
2019-04-05T04:40:04.238Z,26.80
2019-04-05T04:42:34.031Z,20.87
2019-04-05T04:45:11.838Z,18.57
2019-04-05T04:47:36.958Z,17.47
2019-04-05T04:50:08.230Z,18.60
2019-04-05T04:52:38.437Z,17.90
2019-04-05T04:55:08.715Z,18.63
2019-04-05T04:57:38.767Z,17.37
2019-04-05T05:00:08.606Z,23.67
2019-04-05T05:02:38.675Z,23.70
2019-04-05T05:05:09.436Z,18.53
2019-04-05T05:07:39.449Z,17.90
2019-04-05T05:10:10.614Z,16.97
2019-04-05T05:12:42.953Z,17.87
2019-04-05T05:15:14.007Z,17.27
2019-04-05T05:17:43.744Z,17.27
2019-04-05T05:20:13.484Z,18.17
2019-04-05T05:22:43.729Z,17.67
2019-04-05T05:25:13.610Z,18.40
2019-04-05T05:27:43.254Z,17.90
2019-04-05T05:30:13.688Z,17.33
2019-04-05T05:32:43.309Z,17.57
2019-04-05T05:35:12.743Z,17.63
2019-04-05T05:37:42.358Z,17.70
2019-04-05T05:40:12.788Z,17.00
2019-04-05T05:42:42.081Z,16.97
2019-04-05T05:45:11.802Z,17.90
2019-04-05T05:47:51.841Z,17.37
2019-04-05T05:50:14.202Z,16.87
2019-04-05T05:52:43.961Z,17.43
2019-04-05T05:55:19.177Z,17.93
2019-04-05T05:57:48.487Z,17.70
2019-04-05T06:00:19.263Z,17.67
2019-04-05T06:02:48.756Z,17.13
2019-04-05T06:05:18.645Z,17.97
2019-04-05T06:07:48.661Z,18.00
2019-04-05T06:10:17.952Z,18.77
2019-04-05T06:12:47.293Z,18.27
2019-04-05T06:15:16.605Z,18.80
2019-04-05T06:17:45.958Z,18.07
2019-04-05T06:20:16.841Z,18.87
2019-04-05T06:22:47.586Z,18.17
2019-04-05T06:25:17.224Z,18.63
2019-04-05T06:27:46.621Z,18.50
2019-04-05T06:30:15.921Z,17.97
2019-04-05T06:32:45.247Z,18.73
2019-04-05T06:35:14.684Z,18.13
2019-04-05T06:37:44.094Z,18.63
2019-04-05T06:40:13.425Z,18.30
2019-04-05T06:42:42.737Z,18.50
2019-04-05T06:45:12.581Z,18.30
2019-04-05T06:47:41.962Z,17.70
2019-04-05T06:50:11.267Z,18.70
2019-04-05T06:52:40.568Z,18.47
2019-04-05T06:55:09.909Z,18.70
2019-04-05T06:57:39.216Z,17.93
2019-04-05T07:00:09.153Z,17.37
2019-04-05T07:02:38.577Z,18.43
2019-04-05T07:05:08.276Z,17.30
2019-04-05T07:07:37.623Z,18.47
2019-04-05T07:10:06.951Z,19.43
2019-04-05T07:12:36.381Z,19.00
2019-04-05T07:15:06.065Z,17.93
2019-04-05T07:17:35.425Z,16.73
2019-04-05T07:20:05.762Z,18.43
2019-04-05T07:22:39.101Z,17.67
2019-04-05T07:25:06.514Z,18.17
2019-04-05T07:27:35.874Z,17.60
2019-04-05T07:30:06.436Z,18.03
2019-04-05T07:32:35.742Z,18.43
2019-04-05T07:35:05.286Z,19.03
2019-04-05T07:37:34.656Z,18.33
2019-04-05T07:40:04.434Z,17.90
2019-04-05T07:42:33.725Z,18.30
2019-04-05T07:45:03.185Z,17.80
2019-04-05T07:47:32.525Z,17.80
2019-04-05T07:50:01.885Z,17.20
2019-04-05T07:52:31.202Z,18.20
2019-04-05T07:55:00.554Z,17.73
2019-04-05T07:57:29.898Z,18.10
2019-04-05T07:59:59.326Z,18.50
2019-04-05T08:02:28.614Z,21.10
2019-04-05T08:04:57.966Z,22.23
2019-04-05T08:07:31.557Z,19.23
2019-04-05T08:10:03.147Z,29.83
2019-04-05T08:12:34.197Z,90.53
2019-04-05T08:15:04.265Z,21.93
2019-04-05T08:17:33.626Z,19.97
2019-04-05T08:20:02.925Z,33.80
2019-04-05T08:22:32.503Z,19.57
2019-04-05T08:25:02.432Z,19.43
2019-04-05T08:27:31.815Z,18.47
2019-04-05T08:30:01.147Z,19.10
2019-04-05T08:32:30.451Z,19.03
2019-04-05T08:34:59.817Z,18.47
2019-04-05T08:37:29.155Z,17.97
2019-04-05T08:39:58.468Z,16.77
2019-04-05T08:42:27.817Z,17.23
2019-04-05T08:44:57.167Z,18.77
2019-04-05T08:47:26.513Z,18.47
2019-04-05T08:49:55.946Z,18.97
2019-04-05T08:52:27.065Z,18.00
2019-04-05T08:54:56.296Z,17.47
2019-04-05T08:57:25.646Z,17.37
2019-04-05T08:59:54.946Z,17.63
2019-04-05T09:02:24.266Z,17.43
2019-04-05T09:04:53.621Z,17.23
2019-04-05T09:07:22.910Z,17.53
2019-04-05T09:09:52.273Z,17.43
2019-04-05T09:12:21.587Z,17.37
2019-04-05T09:14:50.937Z,17.03
2019-04-05T09:17:20.383Z,16.57
2019-04-05T09:19:49.717Z,17.07
2019-04-05T09:22:19.060Z,16.80
2019-04-05T09:24:48.360Z,16.07
2019-04-05T09:27:17.721Z,15.37
2019-04-05T09:29:47.079Z,17.53
2019-04-05T09:32:17.524Z,16.07
2019-04-05T09:34:46.848Z,16.03
2019-04-05T09:37:16.313Z,15.27
2019-04-05T09:39:45.657Z,16.87
2019-04-05T09:42:15.001Z,15.03
2019-04-05T09:44:44.353Z,15.40
2019-04-05T09:47:13.645Z,15.17
2019-04-05T09:49:43.011Z,15.23
2019-04-05T09:52:12.435Z,16.40
2019-04-05T09:54:41.739Z,15.43
2019-04-05T09:57:11.148Z,15.53
2019-04-05T09:59:40.441Z,15.53
2019-04-05T10:02:10.899Z,15.77
2019-04-05T10:04:40.184Z,15.50
2019-04-05T10:07:09.527Z,15.50
2019-04-05T10:09:38.941Z,16.93
2019-04-05T10:12:08.306Z,16.93
2019-04-05T10:14:37.593Z,16.53
2019-04-05T10:17:07.017Z,15.77
2019-04-05T10:19:48.866Z,15.83
2019-04-05T10:22:07.434Z,15.37
2019-04-05T10:24:36.761Z,13.80
2019-04-05T10:27:06.057Z,14.53
2019-04-05T10:29:35.423Z,14.43
2019-04-05T10:32:05.646Z,13.63
2019-04-05T10:34:35.085Z,14.73
2019-04-05T10:37:04.361Z,14.43
2019-04-05T10:39:33.656Z,15.07
2019-04-05T10:42:04.026Z,14.23
2019-04-05T10:44:34.065Z,14.63
2019-04-05T10:47:03.425Z,14.40
2019-04-05T10:49:32.821Z,13.47
2019-04-05T10:52:02.181Z,13.63
2019-04-05T10:54:31.489Z,13.20
2019-04-05T10:57:00.842Z,13.63
2019-04-05T10:59:30.129Z,13.47
2019-04-05T11:01:59.913Z,13.63
2019-04-05T11:04:29.251Z,11.60
2019-04-05T11:06:58.629Z,12.40
2019-04-05T11:09:27.935Z,12.77
2019-04-05T11:11:57.294Z,12.60
2019-04-05T11:14:26.634Z,11.80
2019-04-05T11:16:58.659Z,10.60
2019-04-05T11:19:27.097Z,10.17
2019-04-05T11:21:56.942Z,10.50
2019-04-05T11:24:26.248Z,9.87
2019-04-05T11:26:55.617Z,10.63
2019-04-05T11:29:24.934Z,9.37
2019-04-05T11:31:57.403Z,11.27
2019-04-05T11:34:25.425Z,10.00
2019-04-05T11:36:55.263Z,10.70
2019-04-05T11:39:25.534Z,11.37
2019-04-05T11:41:57.778Z,10.57
2019-04-05T11:44:29.027Z,10.77
2019-04-05T11:46:58.843Z,11.40
2019-04-05T11:49:30.750Z,9.90
2019-04-05T11:52:00.089Z,9.27
2019-04-05T11:54:29.369Z,9.73
2019-04-05T11:56:58.715Z,9.47
2019-04-05T11:59:28.145Z,8.30
2019-04-05T12:02:20.469Z,8.80
2019-04-05T12:04:49.886Z,8.43
2019-04-05T12:07:21.673Z,8.17
2019-04-05T12:09:50.309Z,8.90
2019-04-05T12:12:19.658Z,8.70
2019-04-05T12:14:48.954Z,7.90
2019-04-05T12:17:18.298Z,7.80
2019-04-05T12:20:08.935Z,7.83
2019-04-05T12:22:38.300Z,8.90
2019-04-05T12:25:08.498Z,8.40
2019-04-05T12:27:38.329Z,8.33
2019-04-05T12:30:09.510Z,8.60
2019-04-05T12:32:41.608Z,8.37
2019-04-05T12:35:09.957Z,8.83
2019-04-05T12:37:49.533Z,8.27
2019-04-05T12:40:11.296Z,8.53
2019-04-05T12:42:42.975Z,8.50
2019-04-05T12:45:18.171Z,8.20
2019-04-05T12:47:47.519Z,8.63
2019-04-05T12:50:16.997Z,8.60
2019-04-05T12:52:48.837Z,9.30
2019-04-05T12:55:18.541Z,9.27
2019-04-05T12:57:48.568Z,8.97
2019-04-05T13:00:19.497Z,8.30
2019-04-05T13:02:50.287Z,8.13
2019-04-05T13:05:21.299Z,8.87
2019-04-05T13:07:52.574Z,8.47
2019-04-05T13:10:25.148Z,8.40
2019-04-05T13:12:56.774Z,8.93
2019-04-05T13:15:24.038Z,8.20
2019-04-05T13:17:53.325Z,7.93
2019-04-05T13:20:23.138Z,7.20
2019-04-05T13:22:52.460Z,7.70
2019-04-05T13:25:23.054Z,8.13
2019-04-05T13:27:52.922Z,8.27
2019-04-05T13:30:28.152Z,7.60
2019-04-05T13:32:57.437Z,7.10
2019-04-05T13:35:26.800Z,7.57
2019-04-05T13:37:56.125Z,7.70
2019-04-05T13:40:25.450Z,7.77
2019-04-05T13:42:55.786Z,8.60
2019-04-05T13:45:25.101Z,7.93
2019-04-05T13:47:54.445Z,8.77
2019-04-05T13:50:23.734Z,8.57
2019-04-05T13:52:53.037Z,8.10
2019-04-05T13:55:22.384Z,8.57
2019-04-05T13:57:51.684Z,9.73
2019-04-05T14:00:21.818Z,10.63
2019-04-05T14:02:51.416Z,9.17
2019-04-05T14:05:22.696Z,9.73
2019-04-05T14:08:09.047Z,9.67
2019-04-05T14:10:24.801Z,9.40
2019-04-05T14:12:54.140Z,9.23
2019-04-05T14:15:23.437Z,9.00
2019-04-05T14:17:53.378Z,9.43
2019-04-05T14:20:24.464Z,9.93
2019-04-05T14:22:53.749Z,11.67
2019-04-05T14:25:25.340Z,9.63
2019-04-05T14:27:54.165Z,9.87
2019-04-05T14:30:23.515Z,10.60
2019-04-05T14:32:55.546Z,9.60
2019-04-05T14:35:25.241Z,10.27
2019-04-05T14:37:55.213Z,10.40
2019-04-05T14:40:28.400Z,10.27
2019-04-05T14:42:55.791Z,10.30
2019-04-05T14:45:25.128Z,10.80
2019-04-05T14:47:57.614Z,9.97
2019-04-05T14:50:28.283Z,10.97
2019-04-05T14:52:56.660Z,10.87
2019-04-05T14:55:29.807Z,10.93
2019-04-05T14:57:58.739Z,11.20
2019-04-05T15:00:28.145Z,12.50
2019-04-05T15:02:57.617Z,12.27
2019-04-05T15:05:27.041Z,11.73
2019-04-05T15:07:56.420Z,11.37
2019-04-05T15:10:26.248Z,11.40
2019-04-05T15:12:56.261Z,11.20
2019-04-05T15:15:25.721Z,11.70
2019-04-05T15:17:55.045Z,11.13
2019-04-05T15:20:24.575Z,11.30
2019-04-05T15:22:54.098Z,11.20
2019-04-05T15:25:23.742Z,12.30
2019-04-05T15:27:55.548Z,12.67
2019-04-05T15:30:26.455Z,12.23
2019-04-05T15:32:57.759Z,12.50
2019-04-05T15:35:28.275Z,12.47
2019-04-05T15:38:01.184Z,12.47
2019-04-05T15:40:30.914Z,12.57
2019-04-05T15:42:59.845Z,13.37
2019-04-05T15:45:29.131Z,11.60
2019-04-05T15:47:58.453Z,12.40
2019-04-05T15:50:27.800Z,12.13
2019-04-05T15:52:57.138Z,12.50
2019-04-05T15:55:26.488Z,11.90
2019-04-05T15:57:55.885Z,11.80
2019-04-05T16:00:41.254Z,11.67
2019-04-05T16:03:11.274Z,11.37
2019-04-05T16:05:41.634Z,12.00
2019-04-05T16:08:11.385Z,11.90
2019-04-05T16:10:40.750Z,11.20
2019-04-05T16:13:10.062Z,11.67
2019-04-05T16:15:39.498Z,11.93
2019-04-05T16:18:08.877Z,11.13
2019-04-05T16:20:38.301Z,11.90
2019-04-05T16:23:07.596Z,11.83
2019-04-05T16:25:37.321Z,11.83
2019-04-05T16:28:06.613Z,13.43
2019-04-05T16:30:35.949Z,14.07
2019-04-05T16:33:05.362Z,13.10
2019-04-05T16:35:34.729Z,11.73
2019-04-05T16:38:04.289Z,11.50
2019-04-05T16:40:33.614Z,11.47
2019-04-05T16:43:03.282Z,11.30
2019-04-05T16:45:33.329Z,11.50
2019-04-05T16:48:02.664Z,11.17
2019-04-05T16:50:31.955Z,28.20
2019-04-05T16:53:01.316Z,11.70
2019-04-05T16:55:30.986Z,12.27
2019-04-05T16:58:00.780Z,12.20
2019-04-05T17:00:30.245Z,12.10
2019-04-05T17:02:59.542Z,11.67
2019-04-05T17:05:28.837Z,14.90
2019-04-05T17:07:58.186Z,13.67
2019-04-05T17:10:27.477Z,13.73
2019-04-05T17:12:56.807Z,13.77
2019-04-05T17:15:26.128Z,19.20
2019-04-05T17:17:56.469Z,16.20
2019-04-05T17:20:25.816Z,16.27
2019-04-05T17:22:58.389Z,15.10
2019-04-05T17:25:26.177Z,15.57
2019-04-05T17:27:55.523Z,15.50
2019-04-05T17:30:24.813Z,15.20
2019-04-05T17:32:54.149Z,14.33
2019-04-05T17:35:23.435Z,14.73
2019-04-05T17:37:52.765Z,14.87
2019-04-05T17:40:22.104Z,14.43
2019-04-05T17:42:51.389Z,15.70
2019-04-05T17:45:20.721Z,16.20
2019-04-05T17:47:50.030Z,14.40
2019-04-05T17:50:31.079Z,15.90
2019-04-05T17:53:11.535Z,16.20
2019-04-05T17:55:31.503Z,15.50
2019-04-05T17:58:02.535Z,15.37
2019-04-05T18:00:31.877Z,14.80
2019-04-05T18:03:01.197Z,14.43
2019-04-05T18:05:30.513Z,14.10
2019-04-05T18:07:59.958Z,13.77
2019-04-05T18:10:29.405Z,13.73
2019-04-05T18:12:58.794Z,15.20
2019-04-05T18:15:28.456Z,14.20
2019-04-05T18:17:57.853Z,14.23
2019-04-05T18:20:27.206Z,13.87
2019-04-05T18:22:56.554Z,13.80
2019-04-05T18:25:26.008Z,14.50
2019-04-05T18:28:15.607Z,13.80
2019-04-05T18:30:44.993Z,13.03
2019-04-05T18:33:14.338Z,11.93
2019-04-05T18:35:43.656Z,13.83
2019-04-05T18:38:13.074Z,14.60
2019-04-05T18:40:46.098Z,17.27
2019-04-05T18:43:15.431Z,17.13
2019-04-05T18:45:44.749Z,18.17
2019-04-05T18:48:14.197Z,18.37
2019-04-05T18:50:43.493Z,17.17
2019-04-05T18:53:12.840Z,17.40
2019-04-05T18:55:42.175Z,19.73
2019-04-05T18:58:12.556Z,18.27
2019-04-05T19:00:41.985Z,20.70
2019-04-05T19:03:11.335Z,21.90
2019-04-05T19:05:40.753Z,25.13
2019-04-05T19:08:10.057Z,20.03
2019-04-05T19:10:39.469Z,18.47
2019-04-05T19:13:08.749Z,17.00
2019-04-05T19:15:38.252Z,16.53
2019-04-05T19:18:07.596Z,17.50
2019-04-05T19:20:37.086Z,17.40
2019-04-05T19:23:07.038Z,18.00
2019-04-05T19:25:36.381Z,18.00
2019-04-05T19:28:07.886Z,19.07
2019-04-05T19:48:35.042Z,42.67
2019-04-05T19:50:48.669Z,29.13
2019-04-05T19:53:18.026Z,23.43
2019-04-05T19:55:47.337Z,21.03
2019-04-05T19:58:16.745Z,22.00
2019-04-05T20:00:46.109Z,23.73
2019-04-05T20:03:15.399Z,22.37
2019-04-05T20:05:44.701Z,21.73
2019-04-05T20:08:14.045Z,23.07
2019-04-05T20:10:43.343Z,25.47
2019-04-05T20:13:12.693Z,21.10
2019-04-05T20:15:41.998Z,18.97
2019-04-05T20:18:11.353Z,19.33
2019-04-05T20:20:40.649Z,20.77
2019-04-05T20:23:09.993Z,20.87
2019-04-05T20:25:39.283Z,21.17
2019-04-05T20:28:10.026Z,38.23
2019-04-05T20:30:39.411Z,52.50
2019-04-05T20:33:08.703Z,41.00
2019-04-05T20:35:38.501Z,30.90
2019-04-05T20:38:07.865Z,29.27
2019-04-05T20:40:37.262Z,26.47
2019-04-05T20:43:06.617Z,25.80
2019-04-05T20:45:35.986Z,25.60
2019-04-05T20:48:05.338Z,24.37
2019-04-05T20:50:34.689Z,24.97
2019-04-05T20:53:04.113Z,26.93
2019-04-05T20:55:33.433Z,25.80
2019-04-05T20:58:02.727Z,25.13
2019-04-05T21:00:32.101Z,24.23
2019-04-05T21:03:01.459Z,25.87
2019-04-05T21:05:30.742Z,25.27
2019-04-05T21:08:06.025Z,24.33
2019-04-05T21:10:41.102Z,24.13
2019-04-05T21:13:10.792Z,24.23
2019-04-05T21:15:43.179Z,23.77
2019-04-05T21:18:12.537Z,23.60
2019-04-05T21:20:41.898Z,23.77
2019-04-05T21:23:11.256Z,23.17
2019-04-05T21:25:40.631Z,24.17
2019-04-05T21:28:09.931Z,24.53
2019-04-05T21:30:39.292Z,24.77
2019-04-05T21:33:08.575Z,25.07
2019-04-05T21:35:37.926Z,24.47
2019-04-05T21:38:07.225Z,24.77
2019-04-05T21:40:36.573Z,24.77
2019-04-05T21:43:05.887Z,24.57
2019-04-05T21:45:35.224Z,23.77
2019-04-05T21:48:04.607Z,24.37
2019-04-05T21:50:34.027Z,25.87
2019-04-05T21:53:03.366Z,24.27
2019-04-05T21:55:32.663Z,25.20
2019-04-05T21:58:02.009Z,24.70
2019-04-05T22:00:45.983Z,26.13
2019-04-05T22:03:15.331Z,24.83
2019-04-05T22:05:44.697Z,24.07
2019-04-05T22:08:14.355Z,23.73
2019-04-05T22:10:43.658Z,24.80
2019-04-05T22:13:13.010Z,26.13
2019-04-05T22:15:42.346Z,25.70
2019-04-05T22:18:11.805Z,26.63
2019-04-05T22:20:41.161Z,25.73
2019-04-05T22:23:16.361Z,26.70
2019-04-05T22:25:45.722Z,25.57
2019-04-05T22:28:15.085Z,26.77
2019-04-05T22:30:44.428Z,27.37
2019-04-05T22:33:13.722Z,27.20
2019-04-05T22:35:43.066Z,28.00
2019-04-05T22:38:12.416Z,27.67
2019-04-05T22:40:41.769Z,29.50
2019-04-05T22:43:11.149Z,28.60
2019-04-05T22:45:40.459Z,29.70
2019-04-05T22:48:09.799Z,28.97
2019-04-05T22:50:40.182Z,31.30
2019-04-05T22:53:09.477Z,29.60
2019-04-05T22:55:38.817Z,31.33
2019-04-05T22:58:08.110Z,31.77
2019-04-05T23:00:37.442Z,32.07
2019-04-05T23:03:06.749Z,31.20
2019-04-05T23:05:36.214Z,30.93
2019-04-05T23:08:05.631Z,32.47
2019-04-05T23:10:35.026Z,31.37
2019-04-05T23:13:04.333Z,32.40
2019-04-05T23:15:33.638Z,32.00
2019-04-05T23:18:03.018Z,32.00
2019-04-05T23:20:32.381Z,32.57
2019-04-05T23:23:01.744Z,31.70
2019-04-05T23:25:31.077Z,33.73
2019-04-05T23:28:00.427Z,31.73
2019-04-05T23:30:30.542Z,32.67
2019-04-05T23:32:59.902Z,33.00
2019-04-05T23:35:29.213Z,32.13
2019-04-05T23:37:58.513Z,30.83
2019-04-05T23:40:27.893Z,30.40
2019-04-05T23:42:58.205Z,29.90
2019-04-05T23:45:27.565Z,30.37
2019-04-05T23:47:56.923Z,29.20
2019-04-05T23:50:26.285Z,29.80
2019-04-05T23:52:55.642Z,29.57
2019-04-05T23:55:33.446Z,31.27
2019-04-05T23:58:01.823Z,28.73
